sensor_id;sensor_type;location;lat;lon;timestamp;P1;durP1;ratioP1;P2;durP2;ratioP2
53835;SDS011;39737;43.334;21.936;2023-08-06T00:00:49;3.42;;;1.85;;
53835;SDS011;39737;43.334;21.936;2023-08-06T00:03:36;4.32;;;1.65;;
53835;SDS011;39737;43.334;21.936;2023-08-06T00:06:22;4.55;;;1.63;;
53835;SDS011;39737;43.334;21.936;2023-08-06T00:09:08;3.17;;;1.60;;
53835;SDS011;39737;43.334;21.936;2023-08-06T00:11:55;2.70;;;1.60;;
53835;SDS011;39737;43.334;21.936;2023-08-06T00:14:41;2.90;;;1.90;;
53835;SDS011;39737;43.334;21.936;2023-08-06T00:17:28;2.30;;;1.65;;
53835;SDS011;39737;43.334;21.936;2023-08-06T00:20:14;2.28;;;1.40;;
53835;SDS011;39737;43.334;21.936;2023-08-06T00:23:01;2.83;;;2.10;;
53835;SDS011;39737;43.334;21.936;2023-08-06T00:25:52;5.30;;;2.80;;
53835;SDS011;39737;43.334;21.936;2023-08-06T00:28:40;4.82;;;2.70;;
53835;SDS011;39737;43.334;21.936;2023-08-06T00:31:29;4.97;;;3.00;;
53835;SDS011;39737;43.334;21.936;2023-08-06T00:34:15;4.20;;;2.70;;
53835;SDS011;39737;43.334;21.936;2023-08-06T00:37:01;5.05;;;2.90;;
53835;SDS011;39737;43.334;21.936;2023-08-06T00:39:48;4.28;;;2.03;;
53835;SDS011;39737;43.334;21.936;2023-08-06T00:42:34;3.90;;;2.60;;
53835;SDS011;39737;43.334;21.936;2023-08-06T00:45:24;3.67;;;2.42;;
53835;SDS011;39737;43.334;21.936;2023-08-06T00:48:11;4.20;;;2.85;;
53835;SDS011;39737;43.334;21.936;2023-08-06T00:50:57;3.30;;;2.00;;
53835;SDS011;39737;43.334;21.936;2023-08-06T00:53:44;2.58;;;1.83;;
53835;SDS011;39737;43.334;21.936;2023-08-06T00:56:31;5.13;;;2.20;;
53835;SDS011;39737;43.334;21.936;2023-08-06T00:59:18;6.32;;;2.47;;
53835;SDS011;39737;43.334;21.936;2023-08-06T01:02:05;3.83;;;1.90;;
53835;SDS011;39737;43.334;21.936;2023-08-06T01:04:53;4.88;;;2.75;;
53835;SDS011;39737;43.334;21.936;2023-08-06T01:10:53;3.28;;;2.10;;
53835;SDS011;39737;43.334;21.936;2023-08-06T01:13:50;4.88;;;2.20;;
53835;SDS011;39737;43.334;21.936;2023-08-06T01:16:40;2.88;;;2.15;;
53835;SDS011;39737;43.334;21.936;2023-08-06T01:19:30;3.45;;;2.05;;
53835;SDS011;39737;43.334;21.936;2023-08-06T01:22:16;2.80;;;1.80;;
53835;SDS011;39737;43.334;21.936;2023-08-06T01:25:03;2.75;;;1.88;;
53835;SDS011;39737;43.334;21.936;2023-08-06T01:27:51;3.20;;;2.08;;
53835;SDS011;39737;43.334;21.936;2023-08-06T01:30:41;2.17;;;1.83;;
53835;SDS011;39737;43.334;21.936;2023-08-06T01:33:30;3.17;;;1.88;;
53835;SDS011;39737;43.334;21.936;2023-08-06T01:36:18;3.38;;;1.95;;
53835;SDS011;39737;43.334;21.936;2023-08-06T01:39:06;2.55;;;2.00;;
53835;SDS011;39737;43.334;21.936;2023-08-06T01:41:52;4.45;;;2.00;;
53835;SDS011;39737;43.334;21.936;2023-08-06T01:44:39;1.75;;;1.15;;
53835;SDS011;39737;43.334;21.936;2023-08-06T01:47:26;2.25;;;1.70;;
53835;SDS011;39737;43.334;21.936;2023-08-06T01:50:12;3.00;;;1.73;;
53835;SDS011;39737;43.334;21.936;2023-08-06T01:52:58;2.67;;;1.67;;
53835;SDS011;39737;43.334;21.936;2023-08-06T01:55:48;2.63;;;1.88;;
53835;SDS011;39737;43.334;21.936;2023-08-06T01:58:35;1.95;;;1.52;;
53835;SDS011;39737;43.334;21.936;2023-08-06T02:01:21;3.22;;;1.58;;
53835;SDS011;39737;43.334;21.936;2023-08-06T02:04:08;2.03;;;1.50;;
53835;SDS011;39737;43.334;21.936;2023-08-06T02:06:55;2.75;;;1.75;;
53835;SDS011;39737;43.334;21.936;2023-08-06T02:09:41;2.20;;;1.80;;
53835;SDS011;39737;43.334;21.936;2023-08-06T02:12:27;3.40;;;1.40;;
53835;SDS011;39737;43.334;21.936;2023-08-06T02:15:13;3.15;;;1.60;;
53835;SDS011;39737;43.334;21.936;2023-08-06T02:18:00;3.00;;;2.00;;
53835;SDS011;39737;43.334;21.936;2023-08-06T02:20:56;3.80;;;1.83;;
53835;SDS011;39737;43.334;21.936;2023-08-06T02:23:47;2.75;;;1.60;;
53835;SDS011;39737;43.334;21.936;2023-08-06T02:26:33;2.75;;;1.98;;
53835;SDS011;39737;43.334;21.936;2023-08-06T02:29:49;4.18;;;1.77;;
53835;SDS011;39737;43.334;21.936;2023-08-06T02:32:35;3.22;;;2.08;;
53835;SDS011;39737;43.334;21.936;2023-08-06T02:35:22;8.35;;;2.33;;
53835;SDS011;39737;43.334;21.936;2023-08-06T02:38:08;5.78;;;2.22;;
53835;SDS011;39737;43.334;21.936;2023-08-06T02:40:54;1.70;;;1.40;;
53835;SDS011;39737;43.334;21.936;2023-08-06T02:43:42;3.58;;;2.33;;
53835;SDS011;39737;43.334;21.936;2023-08-06T02:46:28;6.07;;;2.40;;
53835;SDS011;39737;43.334;21.936;2023-08-06T02:49:14;2.58;;;1.65;;
53835;SDS011;39737;43.334;21.936;2023-08-06T02:52:00;3.55;;;2.13;;
53835;SDS011;39737;43.334;21.936;2023-08-06T02:54:46;2.08;;;1.60;;
53835;SDS011;39737;43.334;21.936;2023-08-06T02:57:33;4.03;;;1.65;;
53835;SDS011;39737;43.334;21.936;2023-08-06T03:00:20;3.08;;;1.70;;
53835;SDS011;39737;43.334;21.936;2023-08-06T03:03:06;2.05;;;1.40;;
53835;SDS011;39737;43.334;21.936;2023-08-06T03:06:00;2.58;;;1.80;;
53835;SDS011;39737;43.334;21.936;2023-08-06T03:08:56;1.98;;;1.75;;
53835;SDS011;39737;43.334;21.936;2023-08-06T03:11:42;3.58;;;2.08;;
53835;SDS011;39737;43.334;21.936;2023-08-06T03:14:31;3.20;;;2.33;;
53835;SDS011;39737;43.334;21.936;2023-08-06T03:17:17;4.50;;;2.45;;
53835;SDS011;39737;43.334;21.936;2023-08-06T03:20:06;4.63;;;1.85;;
53835;SDS011;39737;43.334;21.936;2023-08-06T03:22:53;5.30;;;2.15;;
53835;SDS011;39737;43.334;21.936;2023-08-06T03:25:39;3.92;;;2.15;;
53835;SDS011;39737;43.334;21.936;2023-08-06T03:28:26;3.67;;;2.22;;
53835;SDS011;39737;43.334;21.936;2023-08-06T03:31:13;3.42;;;2.15;;
53835;SDS011;39737;43.334;21.936;2023-08-06T03:34:01;3.03;;;1.95;;
53835;SDS011;39737;43.334;21.936;2023-08-06T03:36:49;2.75;;;1.98;;
53835;SDS011;39737;43.334;21.936;2023-08-06T03:39:35;3.42;;;2.13;;
53835;SDS011;39737;43.334;21.936;2023-08-06T03:42:22;3.05;;;2.13;;
53835;SDS011;39737;43.334;21.936;2023-08-06T03:45:08;2.97;;;1.70;;
53835;SDS011;39737;43.334;21.936;2023-08-06T03:47:56;5.97;;;2.50;;
53835;SDS011;39737;43.334;21.936;2023-08-06T03:50:42;5.13;;;2.53;;
53835;SDS011;39737;43.334;21.936;2023-08-06T03:53:31;3.13;;;1.70;;
53835;SDS011;39737;43.334;21.936;2023-08-06T03:56:18;2.42;;;1.63;;
53835;SDS011;39737;43.334;21.936;2023-08-06T03:59:04;2.72;;;1.60;;
53835;SDS011;39737;43.334;21.936;2023-08-06T04:01:50;3.17;;;2.03;;
53835;SDS011;39737;43.334;21.936;2023-08-06T04:04:37;2.30;;;1.70;;
53835;SDS011;39737;43.334;21.936;2023-08-06T04:07:23;2.85;;;1.90;;
53835;SDS011;39737;43.334;21.936;2023-08-06T04:10:09;4.03;;;1.80;;
53835;SDS011;39737;43.334;21.936;2023-08-06T04:12:56;3.35;;;1.65;;
53835;SDS011;39737;43.334;21.936;2023-08-06T04:15:42;4.30;;;2.15;;
53835;SDS011;39737;43.334;21.936;2023-08-06T04:18:28;3.42;;;1.67;;
53835;SDS011;39737;43.334;21.936;2023-08-06T04:21:15;2.40;;;1.60;;
53835;SDS011;39737;43.334;21.936;2023-08-06T04:24:01;2.40;;;1.60;;
53835;SDS011;39737;43.334;21.936;2023-08-06T04:26:47;8.00;;;2.10;;
53835;SDS011;39737;43.334;21.936;2023-08-06T04:29:34;3.53;;;1.63;;
53835;SDS011;39737;43.334;21.936;2023-08-06T04:32:21;2.40;;;1.35;;
53835;SDS011;39737;43.334;21.936;2023-08-06T04:35:10;5.78;;;1.63;;
53835;SDS011;39737;43.334;21.936;2023-08-06T04:37:57;4.75;;;1.42;;
53835;SDS011;39737;43.334;21.936;2023-08-06T04:40:44;3.70;;;1.52;;
53835;SDS011;39737;43.334;21.936;2023-08-06T04:43:30;2.83;;;1.58;;
53835;SDS011;39737;43.334;21.936;2023-08-06T04:46:17;1.77;;;1.33;;
53835;SDS011;39737;43.334;21.936;2023-08-06T04:49:03;2.28;;;1.17;;
53835;SDS011;39737;43.334;21.936;2023-08-06T04:51:49;1.13;;;0.88;;
53835;SDS011;39737;43.334;21.936;2023-08-06T04:54:36;1.20;;;0.73;;
53835;SDS011;39737;43.334;21.936;2023-08-06T04:57:23;2.08;;;1.48;;
53835;SDS011;39737;43.334;21.936;2023-08-06T05:00:09;2.72;;;1.60;;
53835;SDS011;39737;43.334;21.936;2023-08-06T05:02:56;3.53;;;1.80;;
53835;SDS011;39737;43.334;21.936;2023-08-06T05:05:42;3.22;;;1.48;;
53835;SDS011;39737;43.334;21.936;2023-08-06T05:08:28;2.67;;;1.50;;
53835;SDS011;39737;43.334;21.936;2023-08-06T05:11:14;2.05;;;1.20;;
53835;SDS011;39737;43.334;21.936;2023-08-06T05:14:02;7.65;;;2.45;;
53835;SDS011;39737;43.334;21.936;2023-08-06T05:16:50;4.55;;;1.27;;
53835;SDS011;39737;43.334;21.936;2023-08-06T05:19:39;3.50;;;2.42;;
53835;SDS011;39737;43.334;21.936;2023-08-06T05:22:26;6.20;;;1.98;;
53835;SDS011;39737;43.334;21.936;2023-08-06T05:25:13;1.75;;;1.42;;
53835;SDS011;39737;43.334;21.936;2023-08-06T05:27:59;1.40;;;1.17;;
53835;SDS011;39737;43.334;21.936;2023-08-06T05:30:47;4.15;;;1.60;;
53835;SDS011;39737;43.334;21.936;2023-08-06T05:33:33;2.63;;;1.33;;
53835;SDS011;39737;43.334;21.936;2023-08-06T05:36:21;1.23;;;1.13;;
53835;SDS011;39737;43.334;21.936;2023-08-06T05:39:09;2.72;;;1.73;;
53835;SDS011;39737;43.334;21.936;2023-08-06T05:42:03;4.03;;;1.60;;
53835;SDS011;39737;43.334;21.936;2023-08-06T05:44:50;3.10;;;1.80;;
53835;SDS011;39737;43.334;21.936;2023-08-06T05:47:40;2.78;;;1.80;;
53835;SDS011;39737;43.334;21.936;2023-08-06T05:50:27;2.72;;;1.45;;
53835;SDS011;39737;43.334;21.936;2023-08-06T05:53:13;11.48;;;1.50;;
53835;SDS011;39737;43.334;21.936;2023-08-06T05:55:59;2.53;;;1.52;;
53835;SDS011;39737;43.334;21.936;2023-08-06T05:58:46;4.95;;;2.00;;
53835;SDS011;39737;43.334;21.936;2023-08-06T06:01:33;2.97;;;1.67;;
53835;SDS011;39737;43.334;21.936;2023-08-06T06:04:20;3.47;;;1.90;;
53835;SDS011;39737;43.334;21.936;2023-08-06T06:07:06;1.88;;;1.63;;
53835;SDS011;39737;43.334;21.936;2023-08-06T06:09:52;4.30;;;2.35;;
53835;SDS011;39737;43.334;21.936;2023-08-06T06:12:38;3.22;;;1.35;;
53835;SDS011;39737;43.334;21.936;2023-08-06T06:15:25;6.90;;;1.58;;
53835;SDS011;39737;43.334;21.936;2023-08-06T06:18:13;2.88;;;1.33;;
53835;SDS011;39737;43.334;21.936;2023-08-06T06:20:59;2.22;;;1.30;;
53835;SDS011;39737;43.334;21.936;2023-08-06T06:23:45;2.33;;;1.70;;
53835;SDS011;39737;43.334;21.936;2023-08-06T06:26:32;2.20;;;1.25;;
53835;SDS011;39737;43.334;21.936;2023-08-06T06:29:19;2.55;;;1.38;;
53835;SDS011;39737;43.334;21.936;2023-08-06T06:32:05;5.45;;;1.60;;
53835;SDS011;39737;43.334;21.936;2023-08-06T06:34:53;1.35;;;1.00;;
53835;SDS011;39737;43.334;21.936;2023-08-06T06:37:52;1.23;;;1.13;;
53835;SDS011;39737;43.334;21.936;2023-08-06T06:40:39;2.60;;;1.40;;
53835;SDS011;39737;43.334;21.936;2023-08-06T06:43:25;1.50;;;1.17;;
53835;SDS011;39737;43.334;21.936;2023-08-06T06:46:14;2.38;;;1.58;;
53835;SDS011;39737;43.334;21.936;2023-08-06T06:49:19;2.05;;;1.17;;
53835;SDS011;39737;43.334;21.936;2023-08-06T06:52:05;3.65;;;1.08;;
53835;SDS011;39737;43.334;21.936;2023-08-06T06:54:51;1.25;;;1.02;;
53835;SDS011;39737;43.334;21.936;2023-08-06T06:57:38;2.58;;;1.58;;
53835;SDS011;39737;43.334;21.936;2023-08-06T07:00:24;2.17;;;1.67;;
53835;SDS011;39737;43.334;21.936;2023-08-06T07:03:11;6.30;;;1.67;;
53835;SDS011;39737;43.334;21.936;2023-08-06T07:05:57;2.67;;;2.13;;
53835;SDS011;39737;43.334;21.936;2023-08-06T07:08:45;7.63;;;1.52;;
53835;SDS011;39737;43.334;21.936;2023-08-06T07:11:31;2.00;;;1.30;;
53835;SDS011;39737;43.334;21.936;2023-08-06T07:14:17;3.53;;;1.58;;
53835;SDS011;39737;43.334;21.936;2023-08-06T07:17:03;3.95;;;1.98;;
53835;SDS011;39737;43.334;21.936;2023-08-06T07:19:50;3.75;;;1.70;;
53835;SDS011;39737;43.334;21.936;2023-08-06T07:22:36;6.80;;;2.53;;
53835;SDS011;39737;43.334;21.936;2023-08-06T07:25:22;2.97;;;1.83;;
53835;SDS011;39737;43.334;21.936;2023-08-06T07:28:09;5.20;;;1.75;;
53835;SDS011;39737;43.334;21.936;2023-08-06T07:30:55;2.95;;;2.03;;
53835;SDS011;39737;43.334;21.936;2023-08-06T07:33:42;7.28;;;2.80;;
53835;SDS011;39737;43.334;21.936;2023-08-06T07:36:30;4.10;;;1.98;;
53835;SDS011;39737;43.334;21.936;2023-08-06T07:39:22;5.03;;;2.58;;
53835;SDS011;39737;43.334;21.936;2023-08-06T07:42:10;3.65;;;1.85;;
53835;SDS011;39737;43.334;21.936;2023-08-06T07:44:57;3.95;;;1.70;;
53835;SDS011;39737;43.334;21.936;2023-08-06T07:47:44;2.67;;;1.65;;
53835;SDS011;39737;43.334;21.936;2023-08-06T07:50:30;4.53;;;2.28;;
53835;SDS011;39737;43.334;21.936;2023-08-06T07:53:16;4.80;;;2.42;;
53835;SDS011;39737;43.334;21.936;2023-08-06T07:56:02;3.20;;;2.00;;
53835;SDS011;39737;43.334;21.936;2023-08-06T07:58:48;4.70;;;2.10;;
53835;SDS011;39737;43.334;21.936;2023-08-06T08:01:35;4.97;;;2.10;;
53835;SDS011;39737;43.334;21.936;2023-08-06T08:04:21;6.10;;;2.55;;
53835;SDS011;39737;43.334;21.936;2023-08-06T08:07:09;6.75;;;2.47;;
53835;SDS011;39737;43.334;21.936;2023-08-06T08:09:56;4.43;;;2.33;;
53835;SDS011;39737;43.334;21.936;2023-08-06T08:12:41;2.70;;;1.90;;
53835;SDS011;39737;43.334;21.936;2023-08-06T08:15:32;5.03;;;2.13;;
53835;SDS011;39737;43.334;21.936;2023-08-06T08:18:21;3.70;;;2.45;;
53835;SDS011;39737;43.334;21.936;2023-08-06T08:21:09;3.00;;;1.67;;
53835;SDS011;39737;43.334;21.936;2023-08-06T08:23:55;3.28;;;1.98;;
53835;SDS011;39737;43.334;21.936;2023-08-06T08:26:41;3.33;;;2.00;;
53835;SDS011;39737;43.334;21.936;2023-08-06T08:29:28;2.65;;;1.88;;
53835;SDS011;39737;43.334;21.936;2023-08-06T08:32:14;3.60;;;1.77;;
53835;SDS011;39737;43.334;21.936;2023-08-06T08:35:00;1.55;;;1.35;;
53835;SDS011;39737;43.334;21.936;2023-08-06T08:37:47;2.60;;;1.70;;
53835;SDS011;39737;43.334;21.936;2023-08-06T08:40:33;1.80;;;1.33;;
53835;SDS011;39737;43.334;21.936;2023-08-06T08:43:23;1.75;;;1.33;;
53835;SDS011;39737;43.334;21.936;2023-08-06T08:46:09;2.45;;;1.58;;
53835;SDS011;39737;43.334;21.936;2023-08-06T08:48:57;3.38;;;2.05;;
53835;SDS011;39737;43.334;21.936;2023-08-06T08:51:45;1.98;;;1.50;;
53835;SDS011;39737;43.334;21.936;2023-08-06T08:54:32;1.65;;;1.30;;
53835;SDS011;39737;43.334;21.936;2023-08-06T08:57:19;8.23;;;1.77;;
53835;SDS011;39737;43.334;21.936;2023-08-06T09:00:07;2.53;;;1.77;;
53835;SDS011;39737;43.334;21.936;2023-08-06T09:02:54;3.58;;;1.60;;
53835;SDS011;39737;43.334;21.936;2023-08-06T09:05:43;1.95;;;1.67;;
53835;SDS011;39737;43.334;21.936;2023-08-06T09:09:13;3.17;;;1.70;;
53835;SDS011;39737;43.334;21.936;2023-08-06T09:12:25;2.83;;;1.73;;
53835;SDS011;39737;43.334;21.936;2023-08-06T09:15:10;2.38;;;1.55;;
53835;SDS011;39737;43.334;21.936;2023-08-06T09:17:57;4.22;;;1.70;;
53835;SDS011;39737;43.334;21.936;2023-08-06T09:20:43;2.45;;;1.58;;
53835;SDS011;39737;43.334;21.936;2023-08-06T09:23:30;3.55;;;2.28;;
53835;SDS011;39737;43.334;21.936;2023-08-06T09:26:17;5.15;;;2.30;;
53835;SDS011;39737;43.334;21.936;2023-08-06T09:29:06;3.80;;;1.60;;
53835;SDS011;39737;43.334;21.936;2023-08-06T09:31:53;2.17;;;1.73;;
53835;SDS011;39737;43.334;21.936;2023-08-06T09:34:41;3.55;;;2.55;;
53835;SDS011;39737;43.334;21.936;2023-08-06T09:37:35;3.25;;;1.73;;
53835;SDS011;39737;43.334;21.936;2023-08-06T09:43:12;2.60;;;1.85;;
53835;SDS011;39737;43.334;21.936;2023-08-06T09:52:21;4.22;;;2.55;;
53835;SDS011;39737;43.334;21.936;2023-08-06T09:55:12;2.35;;;1.85;;
53835;SDS011;39737;43.334;21.936;2023-08-06T09:57:59;5.40;;;2.10;;
53835;SDS011;39737;43.334;21.936;2023-08-06T10:00:45;4.10;;;2.38;;
53835;SDS011;39737;43.334;21.936;2023-08-06T10:03:32;2.50;;;1.75;;
53835;SDS011;39737;43.334;21.936;2023-08-06T10:06:19;2.97;;;1.95;;
53835;SDS011;39737;43.334;21.936;2023-08-06T10:09:06;2.70;;;1.80;;
53835;SDS011;39737;43.334;21.936;2023-08-06T10:15:07;2.42;;;1.80;;
53835;SDS011;39737;43.334;21.936;2023-08-06T10:17:56;3.45;;;2.00;;
53835;SDS011;39737;43.334;21.936;2023-08-06T10:20:42;3.55;;;2.05;;
53835;SDS011;39737;43.334;21.936;2023-08-06T10:26:49;3.17;;;2.17;;
53835;SDS011;39737;43.334;21.936;2023-08-06T10:29:39;6.60;;;4.10;;
53835;SDS011;39737;43.334;21.936;2023-08-06T10:35:54;3.50;;;2.00;;
53835;SDS011;39737;43.334;21.936;2023-08-06T10:38:48;4.88;;;2.17;;
53835;SDS011;39737;43.334;21.936;2023-08-06T10:41:53;3.65;;;2.47;;
53835;SDS011;39737;43.334;21.936;2023-08-06T10:47:49;5.15;;;2.15;;
53835;SDS011;39737;43.334;21.936;2023-08-06T10:50:36;5.25;;;2.38;;
53835;SDS011;39737;43.334;21.936;2023-08-06T10:53:22;3.72;;;1.77;;
53835;SDS011;39737;43.334;21.936;2023-08-06T10:56:12;4.10;;;2.20;;
53835;SDS011;39737;43.334;21.936;2023-08-06T10:59:03;2.80;;;1.75;;
53835;SDS011;39737;43.334;21.936;2023-08-06T11:01:49;2.28;;;1.67;;
53835;SDS011;39737;43.334;21.936;2023-08-06T11:04:35;6.15;;;3.38;;
53835;SDS011;39737;43.334;21.936;2023-08-06T11:07:24;4.78;;;1.90;;
53835;SDS011;39737;43.334;21.936;2023-08-06T11:10:14;2.20;;;1.75;;
53835;SDS011;39737;43.334;21.936;2023-08-06T11:13:01;4.40;;;2.30;;
53835;SDS011;39737;43.334;21.936;2023-08-06T11:15:51;2.55;;;1.63;;
53835;SDS011;39737;43.334;21.936;2023-08-06T11:18:38;4.15;;;2.03;;
53835;SDS011;39737;43.334;21.936;2023-08-06T11:21:25;5.18;;;1.67;;
53835;SDS011;39737;43.334;21.936;2023-08-06T11:24:13;5.97;;;1.95;;
53835;SDS011;39737;43.334;21.936;2023-08-06T11:26:59;5.60;;;2.10;;
53835;SDS011;39737;43.334;21.936;2023-08-06T11:29:46;5.20;;;2.13;;
53835;SDS011;39737;43.334;21.936;2023-08-06T11:32:32;3.67;;;2.30;;
53835;SDS011;39737;43.334;21.936;2023-08-06T11:35:19;2.60;;;2.03;;
53835;SDS011;39737;43.334;21.936;2023-08-06T11:38:05;3.20;;;2.03;;
53835;SDS011;39737;43.334;21.936;2023-08-06T11:40:52;2.65;;;2.13;;
53835;SDS011;39737;43.334;21.936;2023-08-06T11:43:38;3.78;;;2.00;;
53835;SDS011;39737;43.334;21.936;2023-08-06T11:46:25;2.50;;;1.63;;
53835;SDS011;39737;43.334;21.936;2023-08-06T11:49:12;3.75;;;2.30;;
53835;SDS011;39737;43.334;21.936;2023-08-06T11:51:58;3.80;;;2.42;;
53835;SDS011;39737;43.334;21.936;2023-08-06T11:54:44;3.63;;;2.38;;
53835;SDS011;39737;43.334;21.936;2023-08-06T11:57:31;2.92;;;2.50;;
53835;SDS011;39737;43.334;21.936;2023-08-06T12:00:24;3.47;;;1.98;;
53835;SDS011;39737;43.334;21.936;2023-08-06T12:03:13;4.53;;;2.75;;
53835;SDS011;39737;43.334;21.936;2023-08-06T12:06:02;8.88;;;2.78;;
53835;SDS011;39737;43.334;21.936;2023-08-06T12:08:49;3.90;;;2.53;;
53835;SDS011;39737;43.334;21.936;2023-08-06T12:11:36;7.78;;;3.05;;
53835;SDS011;39737;43.334;21.936;2023-08-06T12:14:23;5.80;;;2.75;;
53835;SDS011;39737;43.334;21.936;2023-08-06T12:17:09;10.25;;;3.50;;
53835;SDS011;39737;43.334;21.936;2023-08-06T12:19:55;5.88;;;2.72;;
53835;SDS011;39737;43.334;21.936;2023-08-06T12:22:42;4.22;;;2.47;;
53835;SDS011;39737;43.334;21.936;2023-08-06T12:25:28;5.45;;;3.38;;
53835;SDS011;39737;43.334;21.936;2023-08-06T12:28:14;5.57;;;3.33;;
53835;SDS011;39737;43.334;21.936;2023-08-06T12:31:03;4.75;;;3.28;;
53835;SDS011;39737;43.334;21.936;2023-08-06T12:34:02;5.10;;;2.92;;
53835;SDS011;39737;43.334;21.936;2023-08-06T12:37:14;4.75;;;2.83;;
53835;SDS011;39737;43.334;21.936;2023-08-06T12:40:08;4.82;;;2.88;;
53835;SDS011;39737;43.334;21.936;2023-08-06T12:43:13;5.60;;;3.20;;
53835;SDS011;39737;43.334;21.936;2023-08-06T12:46:00;8.80;;;3.22;;
53835;SDS011;39737;43.334;21.936;2023-08-06T12:48:48;4.78;;;3.00;;
53835;SDS011;39737;43.334;21.936;2023-08-06T12:51:35;7.90;;;3.20;;
53835;SDS011;39737;43.334;21.936;2023-08-06T12:54:24;13.02;;;3.92;;
53835;SDS011;39737;43.334;21.936;2023-08-06T12:57:11;3.58;;;2.50;;
53835;SDS011;39737;43.334;21.936;2023-08-06T12:59:57;5.10;;;3.15;;
53835;SDS011;39737;43.334;21.936;2023-08-06T13:02:43;3.13;;;2.22;;
53835;SDS011;39737;43.334;21.936;2023-08-06T13:05:33;5.85;;;2.80;;
53835;SDS011;39737;43.334;21.936;2023-08-06T13:08:19;3.60;;;2.63;;
53835;SDS011;39737;43.334;21.936;2023-08-06T13:11:05;4.65;;;3.05;;
53835;SDS011;39737;43.334;21.936;2023-08-06T13:14:10;3.00;;;2.13;;
53835;SDS011;39737;43.334;21.936;2023-08-06T13:17:00;8.35;;;4.82;;
53835;SDS011;39737;43.334;21.936;2023-08-06T13:19:48;6.00;;;3.58;;
53835;SDS011;39737;43.334;21.936;2023-08-06T13:22:34;5.50;;;3.42;;
53835;SDS011;39737;43.334;21.936;2023-08-06T13:25:24;7.15;;;3.47;;
53835;SDS011;39737;43.334;21.936;2023-08-06T13:28:10;3.28;;;2.30;;
53835;SDS011;39737;43.334;21.936;2023-08-06T13:30:56;5.07;;;2.53;;
53835;SDS011;39737;43.334;21.936;2023-08-06T13:33:43;3.85;;;2.80;;
53835;SDS011;39737;43.334;21.936;2023-08-06T13:36:31;3.30;;;1.95;;
53835;SDS011;39737;43.334;21.936;2023-08-06T13:39:17;6.28;;;3.08;;
53835;SDS011;39737;43.334;21.936;2023-08-06T13:42:04;4.78;;;3.42;;
53835;SDS011;39737;43.334;21.936;2023-08-06T13:44:59;4.70;;;2.83;;
53835;SDS011;39737;43.334;21.936;2023-08-06T13:47:49;2.92;;;2.17;;
53835;SDS011;39737;43.334;21.936;2023-08-06T13:50:36;2.92;;;2.20;;
53835;SDS011;39737;43.334;21.936;2023-08-06T13:53:26;6.30;;;2.55;;
53835;SDS011;39737;43.334;21.936;2023-08-06T13:56:20;2.70;;;2.20;;
53835;SDS011;39737;43.334;21.936;2023-08-06T13:59:06;3.85;;;2.35;;
53835;SDS011;39737;43.334;21.936;2023-08-06T14:01:54;5.18;;;3.08;;
53835;SDS011;39737;43.334;21.936;2023-08-06T14:04:41;3.63;;;2.30;;
53835;SDS011;39737;43.334;21.936;2023-08-06T14:07:28;2.53;;;1.95;;
53835;SDS011;39737;43.334;21.936;2023-08-06T14:10:18;7.13;;;2.28;;
53835;SDS011;39737;43.334;21.936;2023-08-06T14:13:04;6.28;;;2.30;;
53835;SDS011;39737;43.334;21.936;2023-08-06T14:18:46;3.35;;;2.00;;
53835;SDS011;39737;43.334;21.936;2023-08-06T14:21:34;3.42;;;2.10;;
53835;SDS011;39737;43.334;21.936;2023-08-06T14:24:21;3.83;;;2.47;;
53835;SDS011;39737;43.334;21.936;2023-08-06T14:27:07;2.67;;;2.22;;
53835;SDS011;39737;43.334;21.936;2023-08-06T14:29:54;3.88;;;2.40;;
53835;SDS011;39737;43.334;21.936;2023-08-06T14:32:40;4.32;;;2.25;;
53835;SDS011;39737;43.334;21.936;2023-08-06T14:35:26;3.55;;;2.20;;
53835;SDS011;39737;43.334;21.936;2023-08-06T14:41:52;6.32;;;2.30;;
53835;SDS011;39737;43.334;21.936;2023-08-06T14:44:39;3.15;;;1.88;;
53835;SDS011;39737;43.334;21.936;2023-08-06T14:51:42;4.75;;;2.80;;
53835;SDS011;39737;43.334;21.936;2023-08-06T15:02:43;0.88;;;0.50;;
53835;SDS011;39737;43.334;21.936;2023-08-06T15:05:34;0.45;;;0.30;;
53835;SDS011;39737;43.334;21.936;2023-08-06T15:08:23;0.85;;;0.40;;
53835;SDS011;39737;43.334;21.936;2023-08-06T15:11:09;0.30;;;0.30;;
53835;SDS011;39737;43.334;21.936;2023-08-06T15:13:55;0.90;;;0.50;;
53835;SDS011;39737;43.334;21.936;2023-08-06T15:16:42;0.70;;;0.50;;
53835;SDS011;39737;43.334;21.936;2023-08-06T15:19:28;2.90;;;0.40;;
53835;SDS011;39737;43.334;21.936;2023-08-06T15:22:24;0.63;;;0.45;;
53835;SDS011;39737;43.334;21.936;2023-08-06T15:25:35;1.63;;;0.63;;
53835;SDS011;39737;43.334;21.936;2023-08-06T15:28:21;1.35;;;0.52;;
53835;SDS011;39737;43.334;21.936;2023-08-06T15:31:14;4.07;;;1.10;;
53835;SDS011;39737;43.334;21.936;2023-08-06T15:34:01;3.67;;;1.38;;
53835;SDS011;39737;43.334;21.936;2023-08-06T15:36:49;2.10;;;1.20;;
53835;SDS011;39737;43.334;21.936;2023-08-06T15:39:41;2.83;;;1.33;;
53835;SDS011;39737;43.334;21.936;2023-08-06T15:42:30;4.15;;;1.70;;
53835;SDS011;39737;43.334;21.936;2023-08-06T15:45:17;3.10;;;1.70;;
53835;SDS011;39737;43.334;21.936;2023-08-06T15:48:03;1.38;;;1.27;;
53835;SDS011;39737;43.334;21.936;2023-08-06T15:50:50;8.88;;;2.30;;
53835;SDS011;39737;43.334;21.936;2023-08-06T15:53:45;2.30;;;1.02;;
53835;SDS011;39737;43.334;21.936;2023-08-06T15:59:24;3.60;;;1.25;;
53835;SDS011;39737;43.334;21.936;2023-08-06T16:02:13;1.70;;;1.25;;
53835;SDS011;39737;43.334;21.936;2023-08-06T16:05:10;5.78;;;1.92;;
53835;SDS011;39737;43.334;21.936;2023-08-06T16:08:02;2.55;;;1.35;;
53835;SDS011;39737;43.334;21.936;2023-08-06T16:10:48;4.93;;;1.42;;
53835;SDS011;39737;43.334;21.936;2023-08-06T16:13:34;1.60;;;1.05;;
53835;SDS011;39737;43.334;21.936;2023-08-06T16:16:21;2.42;;;1.13;;
53835;SDS011;39737;43.334;21.936;2023-08-06T16:19:07;2.05;;;1.10;;
53835;SDS011;39737;43.334;21.936;2023-08-06T16:21:53;2.70;;;1.45;;
53835;SDS011;39737;43.334;21.936;2023-08-06T16:24:40;5.38;;;2.15;;
53835;SDS011;39737;43.334;21.936;2023-08-06T16:27:29;7.18;;;2.08;;
53835;SDS011;39737;43.334;21.936;2023-08-06T16:30:15;2.65;;;0.90;;
53835;SDS011;39737;43.334;21.936;2023-08-06T16:33:02;1.50;;;1.08;;
53835;SDS011;39737;43.334;21.936;2023-08-06T16:35:49;2.13;;;0.88;;
53835;SDS011;39737;43.334;21.936;2023-08-06T16:38:44;1.08;;;0.70;;
53835;SDS011;39737;43.334;21.936;2023-08-06T16:41:30;1.92;;;0.90;;
53835;SDS011;39737;43.334;21.936;2023-08-06T16:44:16;2.72;;;1.58;;
53835;SDS011;39737;43.334;21.936;2023-08-06T16:47:03;5.47;;;2.75;;
53835;SDS011;39737;43.334;21.936;2023-08-06T16:49:51;2.97;;;1.65;;
53835;SDS011;39737;43.334;21.936;2023-08-06T16:52:38;3.78;;;1.95;;
53835;SDS011;39737;43.334;21.936;2023-08-06T16:55:23;4.30;;;1.95;;
53835;SDS011;39737;43.334;21.936;2023-08-06T16:58:10;1.40;;;0.88;;
53835;SDS011;39737;43.334;21.936;2023-08-06T17:00:56;2.15;;;0.75;;
53835;SDS011;39737;43.334;21.936;2023-08-06T17:03:45;3.45;;;1.00;;
53835;SDS011;39737;43.334;21.936;2023-08-06T17:06:34;1.33;;;0.90;;
53835;SDS011;39737;43.334;21.936;2023-08-06T17:09:20;2.50;;;0.95;;
53835;SDS011;39737;43.334;21.936;2023-08-06T17:12:06;1.35;;;0.85;;
53835;SDS011;39737;43.334;21.936;2023-08-06T17:14:52;1.17;;;0.70;;
53835;SDS011;39737;43.334;21.936;2023-08-06T17:17:39;1.23;;;0.82;;
53835;SDS011;39737;43.334;21.936;2023-08-06T17:20:28;1.55;;;0.90;;
53835;SDS011;39737;43.334;21.936;2023-08-06T17:23:15;7.43;;;2.50;;